Brightway — 9V8755 — position and weather

sailwx.info

Track history (hours):
 
Tides and Currents Weather Stations Pressure Air Temp Water Temp Dewpoint Dewpoint Depression Visibility Wind Speed Wind Dir Waves Ship Positions

Brightway

Last reported at 2018-Apr-16 22:21 UTC. Time now 2018-Apr-20 10:47 UTC.
Position N 21°48' E 121°02'.

Length 274 m; draft 8.8 m.

Type: Tanker. MMSI: 566422000.

Date/timePositionNaut miles runAvg speedWind from/ knotsBaromVisibWave heightAir tempDewpointWater temp
2018-Apr-16 22:21N 21°48' E 121°02'411.7
2018-Apr-16 22:00N 21°51' E 121°05'11 9.9
2018-Apr-16 20:54N 22°00' E 121°11'4 9.8
2018-Apr-16 20:27N 22°04' E 121°14'410.2
2018-Apr-16 20:00N 22°08' E 121°16'510.5
2018-Apr-16 19:30N 22°12' E 121°19'1311.3
2018-Apr-16 18:22N 22°23' E 121°26'411.1
2018-Apr-16 17:58N 22°27' E 121°29'810.8
2018-Apr-16 17:14N 22°33' E 121°34'310.6
2018-Apr-16 16:56N 22°36' E 121°36'1110.6
2018-Apr-16 15:53N 22°46' E 121°40'410.1
2018-Apr-16 15:30N 22°50' E 121°42'510.4
2018-Apr-16 15:00N 22°55' E 121°44'1511.1
2018-Apr-16 13:40N 23°09' E 121°49'211.5
2018-Apr-16 13:28N 23°11' E 121°50'10011.0
2018-Apr-16 04:21N 24°46' E 122°26'  
Track history (hours):
 
Tides and Currents Weather Stations Pressure Air Temp Water Temp Dewpoint Dewpoint Depression Visibility Wind Speed Wind Dir Waves Ship Positions

Brightway

Last reported at 2018-Apr-16 22:21 UTC. Time now 2018-Apr-20 10:47 UTC.
Position N 21°48' E 121°02'.

Length 274 m; draft 8.8 m.

Type: Tanker. MMSI: 566422000.

Date/timePositionNaut miles runAvg speedWind from/ knotsBaromVisibWave heightAir tempDewpointWater temp
2018-Apr-16 22:21N 21°48' E 121°02'411.7
2018-Apr-16 22:00N 21°51' E 121°05'11 9.9
2018-Apr-16 20:54N 22°00' E 121°11'4 9.8
2018-Apr-16 20:27N 22°04' E 121°14'410.2
2018-Apr-16 20:00N 22°08' E 121°16'510.5
2018-Apr-16 19:30N 22°12' E 121°19'1311.3
2018-Apr-16 18:22N 22°23' E 121°26'411.1
2018-Apr-16 17:58N 22°27' E 121°29'810.8
2018-Apr-16 17:14N 22°33' E 121°34'310.6
2018-Apr-16 16:56N 22°36' E 121°36'1110.6
2018-Apr-16 15:53N 22°46' E 121°40'410.1
2018-Apr-16 15:30N 22°50' E 121°42'510.4
2018-Apr-16 15:00N 22°55' E 121°44'1511.1
2018-Apr-16 13:40N 23°09' E 121°49'211.5
2018-Apr-16 13:28N 23°11' E 121°50'10011.0
2018-Apr-16 04:21N 24°46' E 122°26'  

Dump ship's entire track history